sensor_id;sensor_type;location;lat;lon;timestamp;P1;durP1;ratioP1;P2;durP2;ratioP2
6997;SDS011;3539;47.982;12.238;2024-01-30T00:01:13;12.00;;;6.13;;
6997;SDS011;3539;47.982;12.238;2024-01-30T00:03:40;9.60;;;6.50;;
6997;SDS011;3539;47.982;12.238;2024-01-30T00:06:07;13.17;;;6.37;;
6997;SDS011;3539;47.982;12.238;2024-01-30T00:08:35;10.50;;;6.33;;
6997;SDS011;3539;47.982;12.238;2024-01-30T00:11:02;11.10;;;6.37;;
6997;SDS011;3539;47.982;12.238;2024-01-30T00:13:29;10.37;;;6.30;;
6997;SDS011;3539;47.982;12.238;2024-01-30T00:15:55;10.77;;;5.93;;
6997;SDS011;3539;47.982;12.238;2024-01-30T00:18:22;7.33;;;5.47;;
6997;SDS011;3539;47.982;12.238;2024-01-30T00:20:49;11.33;;;6.10;;
6997;SDS011;3539;47.982;12.238;2024-01-30T00:23:16;9.57;;;5.77;;
6997;SDS011;3539;47.982;12.238;2024-01-30T00:25:44;11.33;;;5.73;;
6997;SDS011;3539;47.982;12.238;2024-01-30T00:28:10;13.90;;;6.20;;
6997;SDS011;3539;47.982;12.238;2024-01-30T00:30:37;9.20;;;5.37;;
6997;SDS011;3539;47.982;12.238;2024-01-30T00:33:04;12.97;;;6.63;;
6997;SDS011;3539;47.982;12.238;2024-01-30T00:35:31;12.17;;;6.53;;
6997;SDS011;3539;47.982;12.238;2024-01-30T00:37:57;13.50;;;6.17;;
6997;SDS011;3539;47.982;12.238;2024-01-30T00:40:24;12.17;;;6.50;;
6997;SDS011;3539;47.982;12.238;2024-01-30T00:42:52;9.17;;;5.83;;
6997;SDS011;3539;47.982;12.238;2024-01-30T00:45:19;10.57;;;6.23;;
6997;SDS011;3539;47.982;12.238;2024-01-30T00:47:46;13.23;;;5.30;;
6997;SDS011;3539;47.982;12.238;2024-01-30T00:50:13;8.53;;;5.40;;
6997;SDS011;3539;47.982;12.238;2024-01-30T00:52:39;7.60;;;5.37;;
6997;SDS011;3539;47.982;12.238;2024-01-30T00:55:07;8.57;;;5.23;;
6997;SDS011;3539;47.982;12.238;2024-01-30T00:57:33;8.10;;;5.30;;
6997;SDS011;3539;47.982;12.238;2024-01-30T01:00:01;7.23;;;4.63;;
6997;SDS011;3539;47.982;12.238;2024-01-30T01:02:31;7.90;;;4.77;;
6997;SDS011;3539;47.982;12.238;2024-01-30T01:04:57;6.43;;;4.47;;
6997;SDS011;3539;47.982;12.238;2024-01-30T01:07:24;8.47;;;4.73;;
6997;SDS011;3539;47.982;12.238;2024-01-30T01:09:51;8.57;;;4.63;;
6997;SDS011;3539;47.982;12.238;2024-01-30T01:12:18;7.10;;;4.57;;
6997;SDS011;3539;47.982;12.238;2024-01-30T01:14:44;8.07;;;4.53;;
6997;SDS011;3539;47.982;12.238;2024-01-30T01:17:12;7.80;;;4.97;;
6997;SDS011;3539;47.982;12.238;2024-01-30T01:19:39;10.67;;;5.27;;
6997;SDS011;3539;47.982;12.238;2024-01-30T01:22:06;8.70;;;4.63;;
6997;SDS011;3539;47.982;12.238;2024-01-30T01:24:33;10.00;;;5.13;;
6997;SDS011;3539;47.982;12.238;2024-01-30T01:27:00;7.27;;;4.97;;
6997;SDS011;3539;47.982;12.238;2024-01-30T01:29:27;6.57;;;4.40;;
6997;SDS011;3539;47.982;12.238;2024-01-30T01:31:54;8.77;;;5.10;;
6997;SDS011;3539;47.982;12.238;2024-01-30T01:34:22;6.53;;;4.73;;
6997;SDS011;3539;47.982;12.238;2024-01-30T01:36:49;7.27;;;4.90;;
6997;SDS011;3539;47.982;12.238;2024-01-30T01:39:16;6.07;;;3.87;;
6997;SDS011;3539;47.982;12.238;2024-01-30T01:41:43;7.10;;;4.83;;
6997;SDS011;3539;47.982;12.238;2024-01-30T01:44:10;8.93;;;4.20;;
6997;SDS011;3539;47.982;12.238;2024-01-30T01:46:37;7.83;;;4.73;;
6997;SDS011;3539;47.982;12.238;2024-01-30T01:49:04;6.73;;;4.30;;
6997;SDS011;3539;47.982;12.238;2024-01-30T01:51:33;6.20;;;4.63;;
6997;SDS011;3539;47.982;12.238;2024-01-30T01:54:01;7.20;;;4.33;;
6997;SDS011;3539;47.982;12.238;2024-01-30T01:56:30;6.87;;;4.63;;
6997;SDS011;3539;47.982;12.238;2024-01-30T01:59:00;8.83;;;5.27;;
6997;SDS011;3539;47.982;12.238;2024-01-30T02:01:32;6.43;;;4.60;;
6997;SDS011;3539;47.982;12.238;2024-01-30T02:03:59;9.97;;;4.93;;
6997;SDS011;3539;47.982;12.238;2024-01-30T02:06:26;8.00;;;4.97;;
6997;SDS011;3539;47.982;12.238;2024-01-30T02:08:54;6.83;;;4.57;;
6997;SDS011;3539;47.982;12.238;2024-01-30T02:11:21;8.87;;;4.93;;
6997;SDS011;3539;47.982;12.238;2024-01-30T02:13:49;7.27;;;4.40;;
6997;SDS011;3539;47.982;12.238;2024-01-30T02:16:16;4.93;;;4.33;;
6997;SDS011;3539;47.982;12.238;2024-01-30T02:18:43;7.20;;;4.50;;
6997;SDS011;3539;47.982;12.238;2024-01-30T02:21:13;6.50;;;4.60;;
6997;SDS011;3539;47.982;12.238;2024-01-30T02:23:40;7.57;;;4.30;;
6997;SDS011;3539;47.982;12.238;2024-01-30T02:26:07;6.20;;;4.30;;
6997;SDS011;3539;47.982;12.238;2024-01-30T02:28:34;7.70;;;4.17;;
6997;SDS011;3539;47.982;12.238;2024-01-30T02:31:01;7.47;;;4.57;;
6997;SDS011;3539;47.982;12.238;2024-01-30T02:33:27;6.93;;;3.97;;
6997;SDS011;3539;47.982;12.238;2024-01-30T02:35:54;8.63;;;4.70;;
6997;SDS011;3539;47.982;12.238;2024-01-30T02:38:22;6.97;;;4.57;;
6997;SDS011;3539;47.982;12.238;2024-01-30T02:40:49;5.03;;;3.97;;
6997;SDS011;3539;47.982;12.238;2024-01-30T02:43:16;8.40;;;4.40;;
6997;SDS011;3539;47.982;12.238;2024-01-30T02:45:42;8.17;;;4.80;;
6997;SDS011;3539;47.982;12.238;2024-01-30T02:48:09;7.20;;;4.57;;
6997;SDS011;3539;47.982;12.238;2024-01-30T02:50:36;6.80;;;4.40;;
6997;SDS011;3539;47.982;12.238;2024-01-30T02:53:03;7.67;;;4.77;;
6997;SDS011;3539;47.982;12.238;2024-01-30T02:55:31;7.43;;;4.50;;
6997;SDS011;3539;47.982;12.238;2024-01-30T02:57:58;9.97;;;4.60;;
6997;SDS011;3539;47.982;12.238;2024-01-30T03:00:25;7.03;;;4.17;;
6997;SDS011;3539;47.982;12.238;2024-01-30T03:02:51;8.37;;;5.13;;
6997;SDS011;3539;47.982;12.238;2024-01-30T03:05:18;9.87;;;4.80;;
6997;SDS011;3539;47.982;12.238;2024-01-30T03:07:45;7.40;;;3.90;;
6997;SDS011;3539;47.982;12.238;2024-01-30T03:10:12;7.00;;;4.17;;
6997;SDS011;3539;47.982;12.238;2024-01-30T03:12:40;6.73;;;4.43;;
6997;SDS011;3539;47.982;12.238;2024-01-30T03:15:07;8.60;;;4.33;;
6997;SDS011;3539;47.982;12.238;2024-01-30T03:17:34;7.90;;;4.67;;
6997;SDS011;3539;47.982;12.238;2024-01-30T03:20:02;7.57;;;4.67;;
6997;SDS011;3539;47.982;12.238;2024-01-30T03:22:29;9.40;;;4.67;;
6997;SDS011;3539;47.982;12.238;2024-01-30T03:24:55;9.43;;;4.90;;
6997;SDS011;3539;47.982;12.238;2024-01-30T03:27:22;8.63;;;5.00;;
6997;SDS011;3539;47.982;12.238;2024-01-30T03:29:50;9.10;;;5.00;;
6997;SDS011;3539;47.982;12.238;2024-01-30T03:32:17;13.33;;;4.63;;
6997;SDS011;3539;47.982;12.238;2024-01-30T03:34:43;6.87;;;4.07;;
6997;SDS011;3539;47.982;12.238;2024-01-30T03:37:10;5.27;;;3.47;;
6997;SDS011;3539;47.982;12.238;2024-01-30T03:39:37;6.30;;;3.97;;
6997;SDS011;3539;47.982;12.238;2024-01-30T03:42:04;6.80;;;4.60;;
6997;SDS011;3539;47.982;12.238;2024-01-30T03:44:30;6.87;;;4.03;;
6997;SDS011;3539;47.982;12.238;2024-01-30T03:46:58;5.77;;;4.20;;
6997;SDS011;3539;47.982;12.238;2024-01-30T03:49:25;7.97;;;4.60;;
6997;SDS011;3539;47.982;12.238;2024-01-30T03:51:52;7.27;;;4.47;;
6997;SDS011;3539;47.982;12.238;2024-01-30T03:54:18;6.40;;;4.03;;
6997;SDS011;3539;47.982;12.238;2024-01-30T03:56:45;8.10;;;4.40;;
6997;SDS011;3539;47.982;12.238;2024-01-30T03:59:12;6.63;;;4.20;;
6997;SDS011;3539;47.982;12.238;2024-01-30T04:01:38;6.30;;;4.53;;
6997;SDS011;3539;47.982;12.238;2024-01-30T04:04:07;4.67;;;4.00;;
6997;SDS011;3539;47.982;12.238;2024-01-30T04:06:34;8.87;;;4.80;;
6997;SDS011;3539;47.982;12.238;2024-01-30T04:09:00;5.83;;;4.20;;
6997;SDS011;3539;47.982;12.238;2024-01-30T04:11:28;5.77;;;4.07;;
6997;SDS011;3539;47.982;12.238;2024-01-30T04:13:55;6.50;;;4.03;;
6997;SDS011;3539;47.982;12.238;2024-01-30T04:16:22;8.33;;;4.37;;
6997;SDS011;3539;47.982;12.238;2024-01-30T04:18:49;7.47;;;4.63;;
6997;SDS011;3539;47.982;12.238;2024-01-30T04:21:17;5.03;;;4.03;;
6997;SDS011;3539;47.982;12.238;2024-01-30T04:23:44;7.67;;;4.17;;
6997;SDS011;3539;47.982;12.238;2024-01-30T04:26:10;6.37;;;4.30;;
6997;SDS011;3539;47.982;12.238;2024-01-30T04:28:37;6.10;;;4.27;;
6997;SDS011;3539;47.982;12.238;2024-01-30T04:31:04;5.00;;;3.93;;
6997;SDS011;3539;47.982;12.238;2024-01-30T04:33:30;5.03;;;4.33;;
6997;SDS011;3539;47.982;12.238;2024-01-30T04:35:57;7.47;;;5.10;;
6997;SDS011;3539;47.982;12.238;2024-01-30T04:38:25;8.67;;;5.03;;
6997;SDS011;3539;47.982;12.238;2024-01-30T04:40:52;9.80;;;4.90;;
6997;SDS011;3539;47.982;12.238;2024-01-30T04:43:18;7.17;;;4.47;;
6997;SDS011;3539;47.982;12.238;2024-01-30T04:45:45;7.30;;;4.80;;
6997;SDS011;3539;47.982;12.238;2024-01-30T04:48:12;8.10;;;5.57;;
6997;SDS011;3539;47.982;12.238;2024-01-30T04:50:39;7.90;;;5.20;;
6997;SDS011;3539;47.982;12.238;2024-01-30T04:53:06;8.97;;;4.80;;
6997;SDS011;3539;47.982;12.238;2024-01-30T04:55:34;10.23;;;6.53;;
6997;SDS011;3539;47.982;12.238;2024-01-30T04:58:02;17.77;;;10.00;;
6997;SDS011;3539;47.982;12.238;2024-01-30T05:00:28;9.07;;;5.47;;
6997;SDS011;3539;47.982;12.238;2024-01-30T05:02:55;10.93;;;7.13;;
6997;SDS011;3539;47.982;12.238;2024-01-30T05:05:22;9.37;;;5.07;;
6997;SDS011;3539;47.982;12.238;2024-01-30T05:07:48;6.77;;;4.63;;
6997;SDS011;3539;47.982;12.238;2024-01-30T05:10:15;7.57;;;4.67;;
6997;SDS011;3539;47.982;12.238;2024-01-30T05:12:43;7.70;;;4.60;;
6997;SDS011;3539;47.982;12.238;2024-01-30T05:15:10;6.83;;;4.67;;
6997;SDS011;3539;47.982;12.238;2024-01-30T05:17:36;11.27;;;5.37;;
6997;SDS011;3539;47.982;12.238;2024-01-30T05:20:03;8.27;;;5.40;;
6997;SDS011;3539;47.982;12.238;2024-01-30T05:22:31;22.00;;;7.70;;
6997;SDS011;3539;47.982;12.238;2024-01-30T05:24:58;10.37;;;6.50;;
6997;SDS011;3539;47.982;12.238;2024-01-30T05:27:24;11.57;;;6.70;;
6997;SDS011;3539;47.982;12.238;2024-01-30T05:29:53;12.03;;;8.07;;
6997;SDS011;3539;47.982;12.238;2024-01-30T05:32:20;11.77;;;8.37;;
6997;SDS011;3539;47.982;12.238;2024-01-30T05:34:46;11.93;;;8.13;;
6997;SDS011;3539;47.982;12.238;2024-01-30T05:37:15;10.83;;;7.67;;
6997;SDS011;3539;47.982;12.238;2024-01-30T05:39:43;12.13;;;6.70;;
6997;SDS011;3539;47.982;12.238;2024-01-30T05:42:09;9.90;;;6.60;;
6997;SDS011;3539;47.982;12.238;2024-01-30T05:44:36;9.43;;;5.47;;
6997;SDS011;3539;47.982;12.238;2024-01-30T05:47:05;8.43;;;4.83;;
6997;SDS011;3539;47.982;12.238;2024-01-30T05:49:31;8.80;;;4.70;;
6997;SDS011;3539;47.982;12.238;2024-01-30T05:51:58;7.07;;;4.70;;
6997;SDS011;3539;47.982;12.238;2024-01-30T05:54:25;9.57;;;4.93;;
6997;SDS011;3539;47.982;12.238;2024-01-30T05:56:51;11.03;;;4.60;;
6997;SDS011;3539;47.982;12.238;2024-01-30T05:59:18;7.70;;;4.27;;
6997;SDS011;3539;47.982;12.238;2024-01-30T06:01:45;7.43;;;4.40;;
6997;SDS011;3539;47.982;12.238;2024-01-30T06:04:14;7.17;;;4.33;;
6997;SDS011;3539;47.982;12.238;2024-01-30T06:06:41;6.87;;;5.13;;
6997;SDS011;3539;47.982;12.238;2024-01-30T06:09:07;7.80;;;4.53;;
6997;SDS011;3539;47.982;12.238;2024-01-30T06:11:34;7.27;;;4.17;;
6997;SDS011;3539;47.982;12.238;2024-01-30T06:14:01;5.63;;;4.17;;
6997;SDS011;3539;47.982;12.238;2024-01-30T06:16:28;6.37;;;3.80;;
6997;SDS011;3539;47.982;12.238;2024-01-30T06:18:55;6.87;;;3.93;;
6997;SDS011;3539;47.982;12.238;2024-01-30T06:21:23;6.93;;;4.17;;
6997;SDS011;3539;47.982;12.238;2024-01-30T06:23:50;6.93;;;4.40;;
6997;SDS011;3539;47.982;12.238;2024-01-30T06:26:17;9.77;;;4.87;;
6997;SDS011;3539;47.982;12.238;2024-01-30T06:28:44;5.77;;;4.20;;
6997;SDS011;3539;47.982;12.238;2024-01-30T06:31:10;8.10;;;4.73;;
6997;SDS011;3539;47.982;12.238;2024-01-30T06:33:37;8.03;;;4.53;;
6997;SDS011;3539;47.982;12.238;2024-01-30T06:36:04;6.17;;;3.73;;
6997;SDS011;3539;47.982;12.238;2024-01-30T06:38:32;6.63;;;4.17;;
6997;SDS011;3539;47.982;12.238;2024-01-30T06:40:59;6.33;;;4.30;;
6997;SDS011;3539;47.982;12.238;2024-01-30T06:43:26;6.67;;;3.80;;
6997;SDS011;3539;47.982;12.238;2024-01-30T06:45:52;5.07;;;4.30;;
6997;SDS011;3539;47.982;12.238;2024-01-30T06:48:21;5.77;;;4.10;;
6997;SDS011;3539;47.982;12.238;2024-01-30T06:50:47;7.03;;;4.33;;
6997;SDS011;3539;47.982;12.238;2024-01-30T06:53:15;7.73;;;4.07;;
6997;SDS011;3539;47.982;12.238;2024-01-30T06:55:43;7.40;;;4.27;;
6997;SDS011;3539;47.982;12.238;2024-01-30T06:58:10;5.90;;;4.10;;
6997;SDS011;3539;47.982;12.238;2024-01-30T07:00:37;8.37;;;4.10;;
6997;SDS011;3539;47.982;12.238;2024-01-30T07:03:04;5.33;;;3.87;;
6997;SDS011;3539;47.982;12.238;2024-01-30T07:05:31;6.70;;;4.50;;
6997;SDS011;3539;47.982;12.238;2024-01-30T07:07:58;8.87;;;4.80;;
6997;SDS011;3539;47.982;12.238;2024-01-30T07:10:25;6.60;;;4.30;;
6997;SDS011;3539;47.982;12.238;2024-01-30T07:12:53;6.17;;;4.83;;
6997;SDS011;3539;47.982;12.238;2024-01-30T07:15:20;11.47;;;4.87;;
6997;SDS011;3539;47.982;12.238;2024-01-30T07:17:47;12.33;;;6.30;;
6997;SDS011;3539;47.982;12.238;2024-01-30T07:20:13;9.60;;;5.57;;
6997;SDS011;3539;47.982;12.238;2024-01-30T07:22:40;7.23;;;5.20;;
6997;SDS011;3539;47.982;12.238;2024-01-30T07:25:09;7.67;;;5.23;;
6997;SDS011;3539;47.982;12.238;2024-01-30T07:27:36;8.70;;;4.63;;
6997;SDS011;3539;47.982;12.238;2024-01-30T07:30:05;8.67;;;4.80;;
6997;SDS011;3539;47.982;12.238;2024-01-30T07:32:32;6.53;;;4.77;;
6997;SDS011;3539;47.982;12.238;2024-01-30T07:34:59;9.50;;;5.63;;
6997;SDS011;3539;47.982;12.238;2024-01-30T07:37:26;9.93;;;5.33;;
6997;SDS011;3539;47.982;12.238;2024-01-30T07:39:53;7.80;;;4.63;;
6997;SDS011;3539;47.982;12.238;2024-01-30T07:42:20;8.20;;;5.27;;
6997;SDS011;3539;47.982;12.238;2024-01-30T07:44:47;12.53;;;6.17;;
6997;SDS011;3539;47.982;12.238;2024-01-30T07:47:15;9.00;;;5.53;;
6997;SDS011;3539;47.982;12.238;2024-01-30T07:49:42;9.83;;;4.80;;
6997;SDS011;3539;47.982;12.238;2024-01-30T07:52:08;7.40;;;5.27;;
6997;SDS011;3539;47.982;12.238;2024-01-30T07:54:38;12.13;;;5.83;;
6997;SDS011;3539;47.982;12.238;2024-01-30T07:57:05;8.27;;;5.73;;
6997;SDS011;3539;47.982;12.238;2024-01-30T07:59:32;8.20;;;5.30;;
6997;SDS011;3539;47.982;12.238;2024-01-30T08:01:59;9.27;;;6.17;;
6997;SDS011;3539;47.982;12.238;2024-01-30T08:04:27;11.53;;;5.77;;
6997;SDS011;3539;47.982;12.238;2024-01-30T08:06:53;8.03;;;6.23;;
6997;SDS011;3539;47.982;12.238;2024-01-30T08:09:20;10.07;;;6.17;;
6997;SDS011;3539;47.982;12.238;2024-01-30T08:11:47;10.17;;;6.43;;
6997;SDS011;3539;47.982;12.238;2024-01-30T08:14:14;11.50;;;7.10;;
6997;SDS011;3539;47.982;12.238;2024-01-30T08:16:41;15.93;;;7.30;;
6997;SDS011;3539;47.982;12.238;2024-01-30T08:19:07;13.43;;;7.80;;
6997;SDS011;3539;47.982;12.238;2024-01-30T08:21:36;10.87;;;7.10;;
6997;SDS011;3539;47.982;12.238;2024-01-30T08:24:02;12.57;;;7.30;;
6997;SDS011;3539;47.982;12.238;2024-01-30T08:26:29;17.97;;;7.23;;
6997;SDS011;3539;47.982;12.238;2024-01-30T08:28:56;13.27;;;7.70;;
6997;SDS011;3539;47.982;12.238;2024-01-30T08:31:23;12.03;;;7.47;;
6997;SDS011;3539;47.982;12.238;2024-01-30T08:33:50;11.90;;;7.13;;
6997;SDS011;3539;47.982;12.238;2024-01-30T08:36:16;15.50;;;8.30;;
6997;SDS011;3539;47.982;12.238;2024-01-30T08:38:45;15.43;;;12.53;;
6997;SDS011;3539;47.982;12.238;2024-01-30T08:41:12;12.43;;;8.00;;
6997;SDS011;3539;47.982;12.238;2024-01-30T08:43:38;11.40;;;7.37;;
6997;SDS011;3539;47.982;12.238;2024-01-30T08:46:05;16.80;;;9.67;;
6997;SDS011;3539;47.982;12.238;2024-01-30T08:48:32;16.33;;;9.47;;
6997;SDS011;3539;47.982;12.238;2024-01-30T08:50:59;19.00;;;10.33;;
6997;SDS011;3539;47.982;12.238;2024-01-30T08:53:25;13.63;;;8.77;;
6997;SDS011;3539;47.982;12.238;2024-01-30T08:55:53;16.43;;;8.97;;
6997;SDS011;3539;47.982;12.238;2024-01-30T08:58:20;15.57;;;7.63;;
6997;SDS011;3539;47.982;12.238;2024-01-30T09:00:47;14.70;;;7.67;;
6997;SDS011;3539;47.982;12.238;2024-01-30T09:03:14;14.23;;;8.10;;
6997;SDS011;3539;47.982;12.238;2024-01-30T09:05:40;11.23;;;7.83;;
6997;SDS011;3539;47.982;12.238;2024-01-30T09:08:07;13.53;;;8.37;;
6997;SDS011;3539;47.982;12.238;2024-01-30T09:10:34;11.40;;;7.40;;
6997;SDS011;3539;47.982;12.238;2024-01-30T09:13:02;13.47;;;7.30;;
6997;SDS011;3539;47.982;12.238;2024-01-30T09:15:29;10.77;;;6.77;;
6997;SDS011;3539;47.982;12.238;2024-01-30T09:17:56;9.83;;;6.73;;
6997;SDS011;3539;47.982;12.238;2024-01-30T09:20:23;10.57;;;7.20;;
6997;SDS011;3539;47.982;12.238;2024-01-30T09:22:49;11.47;;;6.47;;
6997;SDS011;3539;47.982;12.238;2024-01-30T09:25:16;9.97;;;7.13;;
6997;SDS011;3539;47.982;12.238;2024-01-30T09:27:43;10.53;;;7.07;;
6997;SDS011;3539;47.982;12.238;2024-01-30T09:30:12;12.27;;;6.67;;
6997;SDS011;3539;47.982;12.238;2024-01-30T09:32:39;9.77;;;6.83;;
6997;SDS011;3539;47.982;12.238;2024-01-30T09:35:06;7.77;;;5.87;;
6997;SDS011;3539;47.982;12.238;2024-01-30T09:37:33;10.07;;;6.53;;
6997;SDS011;3539;47.982;12.238;2024-01-30T09:40:00;9.10;;;6.23;;
6997;SDS011;3539;47.982;12.238;2024-01-30T09:42:28;8.73;;;6.37;;
6997;SDS011;3539;47.982;12.238;2024-01-30T09:44:59;8.03;;;5.67;;
6997;SDS011;3539;47.982;12.238;2024-01-30T09:47:27;8.50;;;7.33;;
6997;SDS011;3539;47.982;12.238;2024-01-30T09:49:54;7.43;;;6.53;;
6997;SDS011;3539;47.982;12.238;2024-01-30T09:52:21;6.63;;;4.73;;
6997;SDS011;3539;47.982;12.238;2024-01-30T09:54:48;5.87;;;4.37;;
6997;SDS011;3539;47.982;12.238;2024-01-30T09:57:16;7.40;;;6.67;;
6997;SDS011;3539;47.982;12.238;2024-01-30T09:59:43;8.27;;;6.50;;
6997;SDS011;3539;47.982;12.238;2024-01-30T10:02:12;7.73;;;6.10;;
6997;SDS011;3539;47.982;12.238;2024-01-30T10:04:40;6.50;;;4.93;;
6997;SDS011;3539;47.982;12.238;2024-01-30T10:07:07;7.93;;;5.97;;
6997;SDS011;3539;47.982;12.238;2024-01-30T10:09:36;8.53;;;6.00;;
6997;SDS011;3539;47.982;12.238;2024-01-30T10:12:03;7.17;;;6.47;;
6997;SDS011;3539;47.982;12.238;2024-01-30T10:14:30;7.43;;;4.90;;
6997;SDS011;3539;47.982;12.238;2024-01-30T10:16:57;6.30;;;5.70;;
6997;SDS011;3539;47.982;12.238;2024-01-30T10:19:24;6.40;;;5.77;;
6997;SDS011;3539;47.982;12.238;2024-01-30T10:21:52;7.30;;;5.80;;
6997;SDS011;3539;47.982;12.238;2024-01-30T10:24:23;6.93;;;4.83;;
6997;SDS011;3539;47.982;12.238;2024-01-30T10:26:50;6.20;;;5.60;;
6997;SDS011;3539;47.982;12.238;2024-01-30T10:29:17;6.83;;;5.40;;
6997;SDS011;3539;47.982;12.238;2024-01-30T10:31:43;7.03;;;4.87;;
6997;SDS011;3539;47.982;12.238;2024-01-30T10:34:10;5.97;;;5.37;;
6997;SDS011;3539;47.982;12.238;2024-01-30T10:36:39;5.57;;;4.70;;
6997;SDS011;3539;47.982;12.238;2024-01-30T10:39:08;5.93;;;4.90;;
6997;SDS011;3539;47.982;12.238;2024-01-30T10:41:37;8.50;;;4.70;;
6997;SDS011;3539;47.982;12.238;2024-01-30T10:44:10;6.00;;;5.07;;
6997;SDS011;3539;47.982;12.238;2024-01-30T10:46:38;6.43;;;5.03;;
6997;SDS011;3539;47.982;12.238;2024-01-30T10:49:05;5.00;;;4.43;;
6997;SDS011;3539;47.982;12.238;2024-01-30T10:51:32;5.17;;;4.47;;
6997;SDS011;3539;47.982;12.238;2024-01-30T10:54:01;5.70;;;4.80;;
6997;SDS011;3539;47.982;12.238;2024-01-30T10:56:30;6.07;;;4.40;;
6997;SDS011;3539;47.982;12.238;2024-01-30T10:58:58;5.37;;;4.50;;
6997;SDS011;3539;47.982;12.238;2024-01-30T11:01:25;4.80;;;4.30;;
6997;SDS011;3539;47.982;12.238;2024-01-30T11:03:54;7.27;;;4.43;;
6997;SDS011;3539;47.982;12.238;2024-01-30T11:06:22;4.97;;;4.40;;
6997;SDS011;3539;47.982;12.238;2024-01-30T11:09:00;4.97;;;4.40;;
6997;SDS011;3539;47.982;12.238;2024-01-30T11:11:27;4.27;;;3.87;;
6997;SDS011;3539;47.982;12.238;2024-01-30T11:13:55;5.83;;;4.63;;
6997;SDS011;3539;47.982;12.238;2024-01-30T11:16:22;4.90;;;3.90;;
6997;SDS011;3539;47.982;12.238;2024-01-30T11:18:50;6.17;;;4.37;;
6997;SDS011;3539;47.982;12.238;2024-01-30T11:21:17;4.37;;;3.97;;
6997;SDS011;3539;47.982;12.238;2024-01-30T11:23:44;4.53;;;3.93;;
6997;SDS011;3539;47.982;12.238;2024-01-30T11:26:16;4.20;;;3.70;;
6997;SDS011;3539;47.982;12.238;2024-01-30T11:28:43;4.73;;;3.97;;
6997;SDS011;3539;47.982;12.238;2024-01-30T11:31:20;3.97;;;3.43;;
6997;SDS011;3539;47.982;12.238;2024-01-30T11:33:47;5.33;;;3.67;;
6997;SDS011;3539;47.982;12.238;2024-01-30T11:36:19;4.43;;;3.73;;
6997;SDS011;3539;47.982;12.238;2024-01-30T11:38:48;4.50;;;3.83;;
6997;SDS011;3539;47.982;12.238;2024-01-30T11:41:15;4.60;;;3.60;;
6997;SDS011;3539;47.982;12.238;2024-01-30T11:43:42;5.40;;;3.87;;
6997;SDS011;3539;47.982;12.238;2024-01-30T11:46:09;4.30;;;3.80;;
6997;SDS011;3539;47.982;12.238;2024-01-30T11:48:37;4.90;;;3.97;;
6997;SDS011;3539;47.982;12.238;2024-01-30T11:51:04;4.17;;;3.77;;
6997;SDS011;3539;47.982;12.238;2024-01-30T11:53:33;3.90;;;3.50;;
6997;SDS011;3539;47.982;12.238;2024-01-30T11:56:03;6.77;;;3.73;;
6997;SDS011;3539;47.982;12.238;2024-01-30T11:58:33;5.30;;;3.63;;
6997;SDS011;3539;47.982;12.238;2024-01-30T12:01:00;4.63;;;3.50;;
6997;SDS011;3539;47.982;12.238;2024-01-30T12:03:28;4.90;;;3.37;;
6997;SDS011;3539;47.982;12.238;2024-01-30T12:05:57;4.70;;;3.27;;
6997;SDS011;3539;47.982;12.238;2024-01-30T12:08:24;3.97;;;3.57;;
6997;SDS011;3539;47.982;12.238;2024-01-30T12:10:56;3.60;;;3.20;;
6997;SDS011;3539;47.982;12.238;2024-01-30T12:13:24;3.67;;;2.93;;
6997;SDS011;3539;47.982;12.238;2024-01-30T12:15:51;3.90;;;3.40;;
6997;SDS011;3539;47.982;12.238;2024-01-30T12:18:19;5.47;;;3.80;;
6997;SDS011;3539;47.982;12.238;2024-01-30T12:20:57;3.80;;;3.10;;
6997;SDS011;3539;47.982;12.238;2024-01-30T12:23:28;8.63;;;3.83;;
6997;SDS011;3539;47.982;12.238;2024-01-30T12:25:54;3.90;;;3.27;;
6997;SDS011;3539;47.982;12.238;2024-01-30T12:28:21;4.07;;;3.47;;
6997;SDS011;3539;47.982;12.238;2024-01-30T12:30:48;5.40;;;3.13;;
6997;SDS011;3539;47.982;12.238;2024-01-30T12:33:18;3.10;;;2.60;;
6997;SDS011;3539;47.982;12.238;2024-01-30T12:35:46;3.30;;;2.73;;
6997;SDS011;3539;47.982;12.238;2024-01-30T12:38:16;3.13;;;2.70;;
6997;SDS011;3539;47.982;12.238;2024-01-30T12:40:45;2.90;;;2.53;;
6997;SDS011;3539;47.982;12.238;2024-01-30T12:43:13;3.07;;;2.67;;
6997;SDS011;3539;47.982;12.238;2024-01-30T12:45:41;2.77;;;2.50;;
6997;SDS011;3539;47.982;12.238;2024-01-30T12:48:08;3.37;;;2.60;;
6997;SDS011;3539;47.982;12.238;2024-01-30T12:50:36;4.67;;;2.87;;
6997;SDS011;3539;47.982;12.238;2024-01-30T12:53:03;3.57;;;2.70;;
6997;SDS011;3539;47.982;12.238;2024-01-30T12:55:32;2.50;;;2.30;;
6997;SDS011;3539;47.982;12.238;2024-01-30T12:57:59;2.63;;;2.40;;
6997;SDS011;3539;47.982;12.238;2024-01-30T13:00:26;3.67;;;2.10;;
6997;SDS011;3539;47.982;12.238;2024-01-30T13:02:53;3.87;;;2.33;;
6997;SDS011;3539;47.982;12.238;2024-01-30T13:05:19;3.33;;;2.50;;
6997;SDS011;3539;47.982;12.238;2024-01-30T13:07:46;3.33;;;2.80;;
6997;SDS011;3539;47.982;12.238;2024-01-30T13:10:13;3.20;;;2.60;;
6997;SDS011;3539;47.982;12.238;2024-01-30T13:12:41;5.17;;;2.73;;
6997;SDS011;3539;47.982;12.238;2024-01-30T13:15:08;3.73;;;2.40;;
6997;SDS011;3539;47.982;12.238;2024-01-30T13:17:36;3.47;;;3.00;;
6997;SDS011;3539;47.982;12.238;2024-01-30T13:20:03;5.87;;;2.97;;
6997;SDS011;3539;47.982;12.238;2024-01-30T13:22:33;2.90;;;2.60;;
6997;SDS011;3539;47.982;12.238;2024-01-30T13:25:00;2.43;;;2.23;;
6997;SDS011;3539;47.982;12.238;2024-01-30T13:27:26;3.47;;;3.10;;
6997;SDS011;3539;47.982;12.238;2024-01-30T13:29:54;3.77;;;2.53;;
6997;SDS011;3539;47.982;12.238;2024-01-30T13:32:21;2.47;;;2.17;;
6997;SDS011;3539;47.982;12.238;2024-01-30T13:34:48;3.57;;;2.60;;
6997;SDS011;3539;47.982;12.238;2024-01-30T13:37:14;4.07;;;2.23;;
6997;SDS011;3539;47.982;12.238;2024-01-30T13:39:41;2.30;;;2.10;;
6997;SDS011;3539;47.982;12.238;2024-01-30T13:42:08;2.63;;;2.10;;
6997;SDS011;3539;47.982;12.238;2024-01-30T13:44:35;2.97;;;2.50;;
6997;SDS011;3539;47.982;12.238;2024-01-30T13:47:03;3.60;;;2.30;;
6997;SDS011;3539;47.982;12.238;2024-01-30T13:49:30;6.73;;;2.80;;
6997;SDS011;3539;47.982;12.238;2024-01-30T13:51:57;3.47;;;2.80;;
6997;SDS011;3539;47.982;12.238;2024-01-30T13:54:24;3.33;;;2.50;;
6997;SDS011;3539;47.982;12.238;2024-01-30T13:56:51;4.30;;;2.80;;
6997;SDS011;3539;47.982;12.238;2024-01-30T13:59:17;2.90;;;2.70;;
6997;SDS011;3539;47.982;12.238;2024-01-30T14:01:48;3.13;;;2.80;;
6997;SDS011;3539;47.982;12.238;2024-01-30T14:04:17;3.33;;;2.90;;
6997;SDS011;3539;47.982;12.238;2024-01-30T14:06:44;4.00;;;3.03;;
6997;SDS011;3539;47.982;12.238;2024-01-30T14:09:10;3.87;;;2.80;;
6997;SDS011;3539;47.982;12.238;2024-01-30T14:11:40;3.70;;;2.60;;
6997;SDS011;3539;47.982;12.238;2024-01-30T14:14:07;3.40;;;2.83;;
6997;SDS011;3539;47.982;12.238;2024-01-30T14:16:35;3.30;;;2.60;;
6997;SDS011;3539;47.982;12.238;2024-01-30T14:19:01;3.87;;;2.90;;
6997;SDS011;3539;47.982;12.238;2024-01-30T14:21:29;3.93;;;2.60;;
6997;SDS011;3539;47.982;12.238;2024-01-30T14:23:56;5.73;;;3.27;;
6997;SDS011;3539;47.982;12.238;2024-01-30T14:26:23;5.73;;;3.40;;
6997;SDS011;3539;47.982;12.238;2024-01-30T14:28:50;6.83;;;4.20;;
6997;SDS011;3539;47.982;12.238;2024-01-30T14:31:16;5.17;;;3.80;;
6997;SDS011;3539;47.982;12.238;2024-01-30T14:33:45;5.13;;;3.80;;
6997;SDS011;3539;47.982;12.238;2024-01-30T14:36:11;5.93;;;3.70;;
6997;SDS011;3539;47.982;12.238;2024-01-30T14:38:40;7.23;;;3.30;;
6997;SDS011;3539;47.982;12.238;2024-01-30T14:41:07;5.90;;;2.87;;
6997;SDS011;3539;47.982;12.238;2024-01-30T14:43:34;3.90;;;2.80;;
6997;SDS011;3539;47.982;12.238;2024-01-30T14:46:02;3.30;;;2.70;;
6997;SDS011;3539;47.982;12.238;2024-01-30T14:48:31;3.80;;;2.80;;
6997;SDS011;3539;47.982;12.238;2024-01-30T14:50:58;3.97;;;3.43;;
6997;SDS011;3539;47.982;12.238;2024-01-30T14:53:25;8.23;;;7.47;;
6997;SDS011;3539;47.982;12.238;2024-01-30T14:55:54;6.50;;;5.83;;
6997;SDS011;3539;47.982;12.238;2024-01-30T14:58:20;5.13;;;4.73;;